sensor_id;sensor_type;location;lat;lon;timestamp;P1;durP1;ratioP1;P2;durP2;ratioP2
11893;SDS011;6006;49.696;8.662;2022-12-07T00:01:15;7.53;;;5.17;;
11893;SDS011;6006;49.696;8.662;2022-12-07T00:03:44;8.13;;;5.50;;
11893;SDS011;6006;49.696;8.662;2022-12-07T00:06:13;7.47;;;4.93;;
11893;SDS011;6006;49.696;8.662;2022-12-07T00:08:43;6.30;;;4.77;;
11893;SDS011;6006;49.696;8.662;2022-12-07T00:11:11;7.27;;;5.23;;
11893;SDS011;6006;49.696;8.662;2022-12-07T00:13:40;9.07;;;5.03;;
11893;SDS011;6006;49.696;8.662;2022-12-07T00:16:08;6.43;;;5.17;;
11893;SDS011;6006;49.696;8.662;2022-12-07T00:18:36;6.03;;;5.03;;
11893;SDS011;6006;49.696;8.662;2022-12-07T00:21:03;6.97;;;5.80;;
11893;SDS011;6006;49.696;8.662;2022-12-07T00:23:32;13.23;;;10.57;;
11893;SDS011;6006;49.696;8.662;2022-12-07T00:26:05;15.20;;;11.87;;
11893;SDS011;6006;49.696;8.662;2022-12-07T00:28:33;14.00;;;10.60;;
11893;SDS011;6006;49.696;8.662;2022-12-07T00:31:01;8.17;;;6.07;;
11893;SDS011;6006;49.696;8.662;2022-12-07T00:33:29;6.50;;;5.17;;
11893;SDS011;6006;49.696;8.662;2022-12-07T00:35:56;7.37;;;4.93;;
11893;SDS011;6006;49.696;8.662;2022-12-07T00:38:24;6.87;;;5.67;;
11893;SDS011;6006;49.696;8.662;2022-12-07T00:40:54;9.30;;;6.40;;
11893;SDS011;6006;49.696;8.662;2022-12-07T00:43:23;7.83;;;6.17;;
11893;SDS011;6006;49.696;8.662;2022-12-07T00:45:51;8.33;;;5.60;;
11893;SDS011;6006;49.696;8.662;2022-12-07T00:48:18;7.70;;;5.93;;
11893;SDS011;6006;49.696;8.662;2022-12-07T00:50:45;8.17;;;6.17;;
11893;SDS011;6006;49.696;8.662;2022-12-07T00:53:12;5.77;;;4.63;;
11893;SDS011;6006;49.696;8.662;2022-12-07T00:55:39;6.73;;;4.67;;
11893;SDS011;6006;49.696;8.662;2022-12-07T00:58:07;6.73;;;4.93;;
11893;SDS011;6006;49.696;8.662;2022-12-07T01:00:36;7.13;;;5.30;;
11893;SDS011;6006;49.696;8.662;2022-12-07T01:03:04;6.97;;;5.23;;
11893;SDS011;6006;49.696;8.662;2022-12-07T01:05:31;5.57;;;4.50;;
11893;SDS011;6006;49.696;8.662;2022-12-07T01:07:58;6.03;;;4.90;;
11893;SDS011;6006;49.696;8.662;2022-12-07T01:10:26;7.40;;;5.43;;
11893;SDS011;6006;49.696;8.662;2022-12-07T01:12:55;5.90;;;4.87;;
11893;SDS011;6006;49.696;8.662;2022-12-07T01:15:22;6.27;;;4.93;;
11893;SDS011;6006;49.696;8.662;2022-12-07T01:17:50;7.53;;;5.40;;
11893;SDS011;6006;49.696;8.662;2022-12-07T01:20:17;8.60;;;5.50;;
11893;SDS011;6006;49.696;8.662;2022-12-07T01:22:44;7.10;;;5.10;;
11893;SDS011;6006;49.696;8.662;2022-12-07T01:25:11;7.27;;;5.43;;
11893;SDS011;6006;49.696;8.662;2022-12-07T01:27:38;7.87;;;5.60;;
11893;SDS011;6006;49.696;8.662;2022-12-07T01:30:06;10.43;;;6.70;;
11893;SDS011;6006;49.696;8.662;2022-12-07T01:32:33;7.97;;;6.07;;
11893;SDS011;6006;49.696;8.662;2022-12-07T01:35:02;8.37;;;6.33;;
11893;SDS011;6006;49.696;8.662;2022-12-07T01:37:33;8.70;;;6.70;;
11893;SDS011;6006;49.696;8.662;2022-12-07T01:40:02;6.60;;;4.90;;
11893;SDS011;6006;49.696;8.662;2022-12-07T01:42:29;6.20;;;4.90;;
11893;SDS011;6006;49.696;8.662;2022-12-07T01:48:08;6.80;;;4.90;;
11893;SDS011;6006;49.696;8.662;2022-12-07T01:50:38;9.63;;;6.53;;
11893;SDS011;6006;49.696;8.662;2022-12-07T01:53:06;9.70;;;5.20;;
11893;SDS011;6006;49.696;8.662;2022-12-07T01:55:37;8.23;;;5.87;;
11893;SDS011;6006;49.696;8.662;2022-12-07T01:58:08;9.87;;;6.50;;
11893;SDS011;6006;49.696;8.662;2022-12-07T02:00:37;8.03;;;6.10;;
11893;SDS011;6006;49.696;8.662;2022-12-07T02:03:05;8.03;;;6.00;;
11893;SDS011;6006;49.696;8.662;2022-12-07T02:05:38;7.53;;;5.83;;
11893;SDS011;6006;49.696;8.662;2022-12-07T02:08:07;9.20;;;6.40;;
11893;SDS011;6006;49.696;8.662;2022-12-07T02:10:36;8.17;;;5.70;;
11893;SDS011;6006;49.696;8.662;2022-12-07T02:13:04;7.37;;;5.70;;
11893;SDS011;6006;49.696;8.662;2022-12-07T02:15:38;9.37;;;6.87;;
11893;SDS011;6006;49.696;8.662;2022-12-07T02:18:14;9.97;;;5.70;;
11893;SDS011;6006;49.696;8.662;2022-12-07T02:20:49;9.07;;;5.63;;
11893;SDS011;6006;49.696;8.662;2022-12-07T02:23:34;6.93;;;5.60;;
11893;SDS011;6006;49.696;8.662;2022-12-07T02:26:19;6.30;;;4.77;;
11893;SDS011;6006;49.696;8.662;2022-12-07T02:29:14;6.63;;;5.13;;
11893;SDS011;6006;49.696;8.662;2022-12-07T02:31:49;6.33;;;4.97;;
11893;SDS011;6006;49.696;8.662;2022-12-07T02:34:22;6.27;;;4.60;;
11893;SDS011;6006;49.696;8.662;2022-12-07T02:36:56;6.53;;;4.87;;
11893;SDS011;6006;49.696;8.662;2022-12-07T02:39:28;7.63;;;5.20;;
11893;SDS011;6006;49.696;8.662;2022-12-07T02:42:01;6.63;;;5.07;;
11893;SDS011;6006;49.696;8.662;2022-12-07T02:44:35;7.57;;;5.47;;
11893;SDS011;6006;49.696;8.662;2022-12-07T02:47:05;7.87;;;5.67;;
11893;SDS011;6006;49.696;8.662;2022-12-07T02:49:35;9.20;;;5.40;;
11893;SDS011;6006;49.696;8.662;2022-12-07T02:52:05;8.47;;;5.60;;
11893;SDS011;6006;49.696;8.662;2022-12-07T02:54:32;8.30;;;5.73;;
11893;SDS011;6006;49.696;8.662;2022-12-07T02:57:00;7.33;;;5.63;;
11893;SDS011;6006;49.696;8.662;2022-12-07T02:59:39;6.90;;;5.10;;
11893;SDS011;6006;49.696;8.662;2022-12-07T03:02:19;8.20;;;5.50;;
11893;SDS011;6006;49.696;8.662;2022-12-07T03:05:00;8.47;;;5.20;;
11893;SDS011;6006;49.696;8.662;2022-12-07T03:07:39;7.13;;;4.73;;
11893;SDS011;6006;49.696;8.662;2022-12-07T03:10:16;7.73;;;5.27;;
11893;SDS011;6006;49.696;8.662;2022-12-07T03:12:52;10.03;;;6.30;;
11893;SDS011;6006;49.696;8.662;2022-12-07T03:15:31;7.43;;;5.50;;
11893;SDS011;6006;49.696;8.662;2022-12-07T03:18:00;8.50;;;5.60;;
11893;SDS011;6006;49.696;8.662;2022-12-07T03:20:29;9.20;;;6.17;;
11893;SDS011;6006;49.696;8.662;2022-12-07T03:22:59;8.27;;;6.43;;
11893;SDS011;6006;49.696;8.662;2022-12-07T03:25:26;8.90;;;6.57;;
11893;SDS011;6006;49.696;8.662;2022-12-07T03:27:56;7.70;;;5.80;;
11893;SDS011;6006;49.696;8.662;2022-12-07T03:30:26;8.40;;;6.10;;
11893;SDS011;6006;49.696;8.662;2022-12-07T03:32:59;9.10;;;6.50;;
11893;SDS011;6006;49.696;8.662;2022-12-07T03:35:30;7.50;;;5.97;;
11893;SDS011;6006;49.696;8.662;2022-12-07T03:38:02;12.33;;;6.83;;
11893;SDS011;6006;49.696;8.662;2022-12-07T03:40:37;7.17;;;5.53;;
11893;SDS011;6006;49.696;8.662;2022-12-07T03:43:09;8.33;;;5.80;;
11893;SDS011;6006;49.696;8.662;2022-12-07T03:45:38;7.00;;;5.63;;
11893;SDS011;6006;49.696;8.662;2022-12-07T03:48:09;7.83;;;6.10;;
11893;SDS011;6006;49.696;8.662;2022-12-07T03:50:44;8.73;;;6.17;;
11893;SDS011;6006;49.696;8.662;2022-12-07T03:53:18;6.83;;;5.33;;
11893;SDS011;6006;49.696;8.662;2022-12-07T03:55:49;8.07;;;5.80;;
11893;SDS011;6006;49.696;8.662;2022-12-07T03:58:19;5.90;;;5.10;;
11893;SDS011;6006;49.696;8.662;2022-12-07T04:00:48;7.70;;;5.90;;
11893;SDS011;6006;49.696;8.662;2022-12-07T04:03:17;7.83;;;5.80;;
11893;SDS011;6006;49.696;8.662;2022-12-07T04:05:44;8.97;;;5.83;;
11893;SDS011;6006;49.696;8.662;2022-12-07T04:08:12;10.47;;;5.97;;
11893;SDS011;6006;49.696;8.662;2022-12-07T04:10:39;8.40;;;5.83;;
11893;SDS011;6006;49.696;8.662;2022-12-07T04:13:06;8.70;;;6.00;;
11893;SDS011;6006;49.696;8.662;2022-12-07T04:15:34;7.30;;;5.73;;
11893;SDS011;6006;49.696;8.662;2022-12-07T04:18:01;8.40;;;6.10;;
11893;SDS011;6006;49.696;8.662;2022-12-07T04:20:30;8.10;;;5.50;;
11893;SDS011;6006;49.696;8.662;2022-12-07T04:22:57;8.73;;;6.20;;
11893;SDS011;6006;49.696;8.662;2022-12-07T04:25:24;10.30;;;6.27;;
11893;SDS011;6006;49.696;8.662;2022-12-07T04:27:51;7.73;;;5.50;;
11893;SDS011;6006;49.696;8.662;2022-12-07T04:30:19;9.70;;;6.43;;
11893;SDS011;6006;49.696;8.662;2022-12-07T04:32:52;8.23;;;5.10;;
11893;SDS011;6006;49.696;8.662;2022-12-07T04:35:19;8.60;;;6.57;;
11893;SDS011;6006;49.696;8.662;2022-12-07T04:37:47;8.37;;;6.23;;
11893;SDS011;6006;49.696;8.662;2022-12-07T04:40:14;8.03;;;6.27;;
11893;SDS011;6006;49.696;8.662;2022-12-07T04:42:41;10.23;;;6.37;;
11893;SDS011;6006;49.696;8.662;2022-12-07T04:45:08;10.83;;;6.70;;
11893;SDS011;6006;49.696;8.662;2022-12-07T04:47:36;9.80;;;6.60;;
11893;SDS011;6006;49.696;8.662;2022-12-07T04:50:03;10.10;;;6.83;;
11893;SDS011;6006;49.696;8.662;2022-12-07T04:52:31;8.17;;;6.07;;
11893;SDS011;6006;49.696;8.662;2022-12-07T04:54:59;8.30;;;5.70;;
11893;SDS011;6006;49.696;8.662;2022-12-07T04:57:26;8.37;;;5.73;;
11893;SDS011;6006;49.696;8.662;2022-12-07T04:59:54;8.07;;;6.10;;
11893;SDS011;6006;49.696;8.662;2022-12-07T05:02:21;7.33;;;5.43;;
11893;SDS011;6006;49.696;8.662;2022-12-07T05:04:48;8.93;;;5.77;;
11893;SDS011;6006;49.696;8.662;2022-12-07T05:07:15;8.67;;;5.40;;
11893;SDS011;6006;49.696;8.662;2022-12-07T05:09:43;8.87;;;5.97;;
11893;SDS011;6006;49.696;8.662;2022-12-07T05:12:11;10.40;;;5.77;;
11893;SDS011;6006;49.696;8.662;2022-12-07T05:14:38;7.50;;;5.20;;
11893;SDS011;6006;49.696;8.662;2022-12-07T05:17:05;6.43;;;5.33;;
11893;SDS011;6006;49.696;8.662;2022-12-07T05:19:32;9.63;;;5.47;;
11893;SDS011;6006;49.696;8.662;2022-12-07T05:21:59;7.53;;;5.33;;
11893;SDS011;6006;49.696;8.662;2022-12-07T05:24:26;8.70;;;6.77;;
11893;SDS011;6006;49.696;8.662;2022-12-07T05:26:53;7.67;;;6.20;;
11893;SDS011;6006;49.696;8.662;2022-12-07T05:29:21;8.13;;;5.60;;
11893;SDS011;6006;49.696;8.662;2022-12-07T05:31:48;8.87;;;5.67;;
11893;SDS011;6006;49.696;8.662;2022-12-07T05:34:15;8.37;;;5.57;;
11893;SDS011;6006;49.696;8.662;2022-12-07T05:36:42;7.10;;;5.63;;
11893;SDS011;6006;49.696;8.662;2022-12-07T05:39:09;6.63;;;4.77;;
11893;SDS011;6006;49.696;8.662;2022-12-07T05:41:36;6.87;;;5.20;;
11893;SDS011;6006;49.696;8.662;2022-12-07T05:44:22;7.23;;;5.47;;
11893;SDS011;6006;49.696;8.662;2022-12-07T05:46:49;6.17;;;5.03;;
11893;SDS011;6006;49.696;8.662;2022-12-07T05:49:16;5.83;;;4.53;;
11893;SDS011;6006;49.696;8.662;2022-12-07T05:51:43;6.67;;;4.80;;
11893;SDS011;6006;49.696;8.662;2022-12-07T05:54:10;5.87;;;4.80;;
11893;SDS011;6006;49.696;8.662;2022-12-07T05:56:37;7.27;;;4.77;;
11893;SDS011;6006;49.696;8.662;2022-12-07T05:59:04;8.00;;;5.07;;
11893;SDS011;6006;49.696;8.662;2022-12-07T06:01:51;7.57;;;4.73;;
11893;SDS011;6006;49.696;8.662;2022-12-07T06:04:18;7.27;;;4.90;;
11893;SDS011;6006;49.696;8.662;2022-12-07T06:06:47;6.57;;;5.00;;
11893;SDS011;6006;49.696;8.662;2022-12-07T06:09:14;12.90;;;8.47;;
11893;SDS011;6006;49.696;8.662;2022-12-07T06:11:41;10.60;;;7.10;;
11893;SDS011;6006;49.696;8.662;2022-12-07T06:14:26;6.60;;;5.10;;
11893;SDS011;6006;49.696;8.662;2022-12-07T06:16:54;6.20;;;5.03;;
11893;SDS011;6006;49.696;8.662;2022-12-07T06:19:21;8.63;;;5.73;;
11893;SDS011;6006;49.696;8.662;2022-12-07T06:21:48;8.50;;;5.73;;
11893;SDS011;6006;49.696;8.662;2022-12-07T06:24:15;7.77;;;5.33;;
11893;SDS011;6006;49.696;8.662;2022-12-07T06:26:43;7.37;;;5.53;;
11893;SDS011;6006;49.696;8.662;2022-12-07T06:29:11;8.70;;;5.50;;
11893;SDS011;6006;49.696;8.662;2022-12-07T06:31:39;8.37;;;5.53;;
11893;SDS011;6006;49.696;8.662;2022-12-07T06:34:09;7.40;;;5.47;;
11893;SDS011;6006;49.696;8.662;2022-12-07T06:36:37;7.60;;;6.00;;
11893;SDS011;6006;49.696;8.662;2022-12-07T06:39:04;6.87;;;5.30;;
11893;SDS011;6006;49.696;8.662;2022-12-07T06:41:34;7.97;;;5.73;;
11893;SDS011;6006;49.696;8.662;2022-12-07T06:44:01;7.60;;;5.03;;
11893;SDS011;6006;49.696;8.662;2022-12-07T06:46:28;9.33;;;5.97;;
11893;SDS011;6006;49.696;8.662;2022-12-07T06:48:55;9.40;;;6.13;;
11893;SDS011;6006;49.696;8.662;2022-12-07T06:51:24;9.07;;;6.50;;
11893;SDS011;6006;49.696;8.662;2022-12-07T06:53:52;8.63;;;6.00;;
11893;SDS011;6006;49.696;8.662;2022-12-07T06:56:19;9.00;;;6.20;;
11893;SDS011;6006;49.696;8.662;2022-12-07T06:58:46;9.90;;;7.03;;
11893;SDS011;6006;49.696;8.662;2022-12-07T07:01:13;13.20;;;7.77;;
11893;SDS011;6006;49.696;8.662;2022-12-07T07:03:41;8.90;;;5.90;;
11893;SDS011;6006;49.696;8.662;2022-12-07T07:06:08;9.70;;;6.77;;
11893;SDS011;6006;49.696;8.662;2022-12-07T07:08:37;9.67;;;6.13;;
11893;SDS011;6006;49.696;8.662;2022-12-07T07:11:05;7.10;;;4.97;;
11893;SDS011;6006;49.696;8.662;2022-12-07T07:13:33;8.83;;;5.70;;
11893;SDS011;6006;49.696;8.662;2022-12-07T07:16:00;10.83;;;6.77;;
11893;SDS011;6006;49.696;8.662;2022-12-07T07:18:27;10.97;;;6.87;;
11893;SDS011;6006;49.696;8.662;2022-12-07T07:20:54;10.37;;;6.83;;
11893;SDS011;6006;49.696;8.662;2022-12-07T07:23:22;10.50;;;6.70;;
11893;SDS011;6006;49.696;8.662;2022-12-07T07:25:50;9.10;;;6.03;;
11893;SDS011;6006;49.696;8.662;2022-12-07T07:28:17;15.50;;;9.00;;
11893;SDS011;6006;49.696;8.662;2022-12-07T07:30:44;18.67;;;10.77;;
11893;SDS011;6006;49.696;8.662;2022-12-07T07:33:11;12.57;;;7.70;;
11893;SDS011;6006;49.696;8.662;2022-12-07T07:35:38;8.17;;;5.70;;
11893;SDS011;6006;49.696;8.662;2022-12-07T07:38:06;11.27;;;7.63;;
11893;SDS011;6006;49.696;8.662;2022-12-07T07:40:34;8.77;;;6.20;;
11893;SDS011;6006;49.696;8.662;2022-12-07T07:43:03;9.93;;;6.20;;
11893;SDS011;6006;49.696;8.662;2022-12-07T07:45:30;7.43;;;5.63;;
11893;SDS011;6006;49.696;8.662;2022-12-07T07:47:57;6.20;;;5.60;;
11893;SDS011;6006;49.696;8.662;2022-12-07T07:50:24;10.67;;;6.43;;
11893;SDS011;6006;49.696;8.662;2022-12-07T07:52:51;8.53;;;5.93;;
11893;SDS011;6006;49.696;8.662;2022-12-07T07:55:18;9.10;;;6.40;;
11893;SDS011;6006;49.696;8.662;2022-12-07T07:57:45;8.57;;;5.80;;
11893;SDS011;6006;49.696;8.662;2022-12-07T08:00:14;7.77;;;5.07;;
11893;SDS011;6006;49.696;8.662;2022-12-07T08:02:42;9.70;;;5.83;;
11893;SDS011;6006;49.696;8.662;2022-12-07T08:05:11;9.13;;;6.33;;
11893;SDS011;6006;49.696;8.662;2022-12-07T08:07:38;9.27;;;6.10;;
11893;SDS011;6006;49.696;8.662;2022-12-07T08:10:06;8.60;;;6.00;;
11893;SDS011;6006;49.696;8.662;2022-12-07T08:12:35;8.33;;;6.27;;
11893;SDS011;6006;49.696;8.662;2022-12-07T08:15:26;10.13;;;7.00;;
11893;SDS011;6006;49.696;8.662;2022-12-07T08:17:53;20.93;;;14.03;;
11893;SDS011;6006;49.696;8.662;2022-12-07T08:20:21;12.67;;;9.63;;
11893;SDS011;6006;49.696;8.662;2022-12-07T08:22:49;9.53;;;6.77;;
11893;SDS011;6006;49.696;8.662;2022-12-07T08:25:16;12.13;;;6.47;;
11893;SDS011;6006;49.696;8.662;2022-12-07T08:27:44;10.47;;;6.40;;
11893;SDS011;6006;49.696;8.662;2022-12-07T08:30:11;10.03;;;7.27;;
11893;SDS011;6006;49.696;8.662;2022-12-07T08:32:40;9.53;;;6.60;;
11893;SDS011;6006;49.696;8.662;2022-12-07T08:35:08;10.07;;;7.27;;
11893;SDS011;6006;49.696;8.662;2022-12-07T08:37:36;12.03;;;9.83;;
11893;SDS011;6006;49.696;8.662;2022-12-07T08:40:04;10.53;;;7.47;;
11893;SDS011;6006;49.696;8.662;2022-12-07T08:42:32;9.77;;;6.23;;
11893;SDS011;6006;49.696;8.662;2022-12-07T08:45:05;11.10;;;8.23;;
11893;SDS011;6006;49.696;8.662;2022-12-07T08:47:34;8.40;;;6.90;;
11893;SDS011;6006;49.696;8.662;2022-12-07T08:50:03;9.73;;;6.67;;
11893;SDS011;6006;49.696;8.662;2022-12-07T08:52:33;9.23;;;6.53;;
11893;SDS011;6006;49.696;8.662;2022-12-07T08:55:02;11.20;;;6.83;;
11893;SDS011;6006;49.696;8.662;2022-12-07T08:57:31;10.87;;;6.93;;
11893;SDS011;6006;49.696;8.662;2022-12-07T09:00:01;8.60;;;6.80;;
11893;SDS011;6006;49.696;8.662;2022-12-07T09:02:30;12.80;;;7.30;;
11893;SDS011;6006;49.696;8.662;2022-12-07T09:04:58;10.27;;;7.37;;
11893;SDS011;6006;49.696;8.662;2022-12-07T09:07:26;10.17;;;6.97;;
11893;SDS011;6006;49.696;8.662;2022-12-07T09:09:54;11.57;;;7.50;;
11893;SDS011;6006;49.696;8.662;2022-12-07T09:12:21;10.97;;;7.33;;
11893;SDS011;6006;49.696;8.662;2022-12-07T09:14:48;10.73;;;7.90;;
11893;SDS011;6006;49.696;8.662;2022-12-07T09:17:15;10.00;;;7.53;;
11893;SDS011;6006;49.696;8.662;2022-12-07T09:19:42;12.57;;;7.90;;
11893;SDS011;6006;49.696;8.662;2022-12-07T09:22:09;9.53;;;7.57;;
11893;SDS011;6006;49.696;8.662;2022-12-07T09:24:38;8.03;;;6.63;;
11893;SDS011;6006;49.696;8.662;2022-12-07T09:27:05;11.27;;;7.67;;
11893;SDS011;6006;49.696;8.662;2022-12-07T09:29:32;14.47;;;7.97;;
11893;SDS011;6006;49.696;8.662;2022-12-07T09:31:59;8.27;;;6.43;;
11893;SDS011;6006;49.696;8.662;2022-12-07T09:34:26;9.57;;;6.80;;
11893;SDS011;6006;49.696;8.662;2022-12-07T09:36:56;9.37;;;6.87;;
11893;SDS011;6006;49.696;8.662;2022-12-07T09:39:23;8.57;;;7.00;;
11893;SDS011;6006;49.696;8.662;2022-12-07T09:41:51;7.67;;;6.37;;
11893;SDS011;6006;49.696;8.662;2022-12-07T09:44:20;9.33;;;6.83;;
11893;SDS011;6006;49.696;8.662;2022-12-07T09:46:50;8.33;;;6.67;;
11893;SDS011;6006;49.696;8.662;2022-12-07T09:49:19;8.03;;;6.47;;
11893;SDS011;6006;49.696;8.662;2022-12-07T09:51:47;7.97;;;6.57;;
11893;SDS011;6006;49.696;8.662;2022-12-07T09:54:25;9.47;;;7.00;;
11893;SDS011;6006;49.696;8.662;2022-12-07T09:56:54;9.30;;;6.33;;
11893;SDS011;6006;49.696;8.662;2022-12-07T09:59:21;11.93;;;9.13;;
11893;SDS011;6006;49.696;8.662;2022-12-07T10:01:49;13.87;;;8.83;;
11893;SDS011;6006;49.696;8.662;2022-12-07T10:04:17;10.07;;;7.40;;
11893;SDS011;6006;49.696;8.662;2022-12-07T10:06:46;9.30;;;7.10;;
11893;SDS011;6006;49.696;8.662;2022-12-07T10:09:13;9.47;;;6.80;;
11893;SDS011;6006;49.696;8.662;2022-12-07T10:12:00;9.13;;;6.50;;
11893;SDS011;6006;49.696;8.662;2022-12-07T10:14:31;9.03;;;7.10;;
11893;SDS011;6006;49.696;8.662;2022-12-07T10:16:59;11.30;;;7.87;;
11893;SDS011;6006;49.696;8.662;2022-12-07T10:19:28;8.93;;;7.17;;
11893;SDS011;6006;49.696;8.662;2022-12-07T10:22:02;10.23;;;7.27;;
11893;SDS011;6006;49.696;8.662;2022-12-07T10:24:31;9.73;;;7.40;;
11893;SDS011;6006;49.696;8.662;2022-12-07T10:26:58;12.57;;;8.50;;
11893;SDS011;6006;49.696;8.662;2022-12-07T10:29:28;12.27;;;8.87;;
11893;SDS011;6006;49.696;8.662;2022-12-07T10:31:57;10.40;;;7.80;;
11893;SDS011;6006;49.696;8.662;2022-12-07T10:34:26;10.10;;;8.17;;
11893;SDS011;6006;49.696;8.662;2022-12-07T10:37:06;9.87;;;7.53;;
11893;SDS011;6006;49.696;8.662;2022-12-07T10:39:40;14.77;;;11.43;;
11893;SDS011;6006;49.696;8.662;2022-12-07T10:42:17;11.67;;;8.10;;
11893;SDS011;6006;49.696;8.662;2022-12-07T10:44:45;10.47;;;7.07;;
11893;SDS011;6006;49.696;8.662;2022-12-07T10:47:15;10.77;;;7.10;;
11893;SDS011;6006;49.696;8.662;2022-12-07T10:50:02;9.33;;;7.20;;
11893;SDS011;6006;49.696;8.662;2022-12-07T10:52:58;9.20;;;6.13;;
11893;SDS011;6006;49.696;8.662;2022-12-07T10:55:45;11.70;;;7.27;;
11893;SDS011;6006;49.696;8.662;2022-12-07T10:58:31;11.80;;;7.43;;
11893;SDS011;6006;49.696;8.662;2022-12-07T11:01:13;7.77;;;6.17;;
11893;SDS011;6006;49.696;8.662;2022-12-07T11:03:52;10.43;;;6.80;;
11893;SDS011;6006;49.696;8.662;2022-12-07T11:06:30;9.20;;;7.23;;
11893;SDS011;6006;49.696;8.662;2022-12-07T11:09:04;8.57;;;6.83;;
11893;SDS011;6006;49.696;8.662;2022-12-07T11:11:48;10.03;;;6.90;;
11893;SDS011;6006;49.696;8.662;2022-12-07T11:14:25;9.67;;;7.20;;
11893;SDS011;6006;49.696;8.662;2022-12-07T11:16:58;12.10;;;7.43;;
11893;SDS011;6006;49.696;8.662;2022-12-07T11:19:43;8.63;;;6.70;;
11893;SDS011;6006;49.696;8.662;2022-12-07T11:22:23;8.70;;;7.17;;
11893;SDS011;6006;49.696;8.662;2022-12-07T11:25:02;10.50;;;7.60;;
11893;SDS011;6006;49.696;8.662;2022-12-07T11:27:40;9.27;;;6.33;;
11893;SDS011;6006;49.696;8.662;2022-12-07T11:30:15;9.10;;;6.50;;
11893;SDS011;6006;49.696;8.662;2022-12-07T11:32:56;8.33;;;6.57;;
11893;SDS011;6006;49.696;8.662;2022-12-07T11:35:39;10.63;;;6.93;;
11893;SDS011;6006;49.696;8.662;2022-12-07T11:38:14;9.80;;;5.93;;
11893;SDS011;6006;49.696;8.662;2022-12-07T11:40:43;11.67;;;7.03;;
11893;SDS011;6006;49.696;8.662;2022-12-07T11:43:13;8.07;;;6.17;;
11893;SDS011;6006;49.696;8.662;2022-12-07T11:45:49;10.13;;;6.43;;
11893;SDS011;6006;49.696;8.662;2022-12-07T11:48:24;8.70;;;6.40;;
11893;SDS011;6006;49.696;8.662;2022-12-07T11:50:59;9.77;;;5.97;;
11893;SDS011;6006;49.696;8.662;2022-12-07T11:53:29;7.10;;;5.80;;
11893;SDS011;6006;49.696;8.662;2022-12-07T11:56:02;7.37;;;6.03;;
11893;SDS011;6006;49.696;8.662;2022-12-07T11:58:36;10.10;;;5.97;;
11893;SDS011;6006;49.696;8.662;2022-12-07T12:01:15;7.00;;;5.57;;
11893;SDS011;6006;49.696;8.662;2022-12-07T12:04:03;8.30;;;6.23;;
11893;SDS011;6006;49.696;8.662;2022-12-07T12:06:40;9.43;;;6.47;;
11893;SDS011;6006;49.696;8.662;2022-12-07T12:09:11;8.93;;;6.03;;
11893;SDS011;6006;49.696;8.662;2022-12-07T12:11:45;9.17;;;6.20;;
11893;SDS011;6006;49.696;8.662;2022-12-07T12:14:37;9.70;;;6.13;;
11893;SDS011;6006;49.696;8.662;2022-12-07T12:17:25;8.77;;;5.77;;
11893;SDS011;6006;49.696;8.662;2022-12-07T12:20:13;11.73;;;6.53;;
11893;SDS011;6006;49.696;8.662;2022-12-07T12:22:47;8.70;;;6.23;;
11893;SDS011;6006;49.696;8.662;2022-12-07T12:25:20;10.33;;;6.70;;
11893;SDS011;6006;49.696;8.662;2022-12-07T12:27:50;9.37;;;6.50;;
11893;SDS011;6006;49.696;8.662;2022-12-07T12:30:24;8.63;;;6.70;;
11893;SDS011;6006;49.696;8.662;2022-12-07T12:33:02;8.90;;;6.70;;
11893;SDS011;6006;49.696;8.662;2022-12-07T12:35:32;7.93;;;6.37;;
11893;SDS011;6006;49.696;8.662;2022-12-07T12:40:52;10.00;;;7.13;;
11893;SDS011;6006;49.696;8.662;2022-12-07T12:46:36;7.80;;;6.23;;
11893;SDS011;6006;49.696;8.662;2022-12-07T12:52:01;8.40;;;6.33;;
11893;SDS011;6006;49.696;8.662;2022-12-07T12:55:19;8.63;;;5.70;;
11893;SDS011;6006;49.696;8.662;2022-12-07T13:04:26;7.83;;;5.67;;
11893;SDS011;6006;49.696;8.662;2022-12-07T13:10:20;5.70;;;4.67;;
11893;SDS011;6006;49.696;8.662;2022-12-07T13:13:03;5.80;;;4.27;;
11893;SDS011;6006;49.696;8.662;2022-12-07T13:15:52;4.53;;;4.07;;
11893;SDS011;6006;49.696;8.662;2022-12-07T13:18:24;5.63;;;4.20;;
11893;SDS011;6006;49.696;8.662;2022-12-07T13:21:01;6.20;;;4.43;;
11893;SDS011;6006;49.696;8.662;2022-12-07T13:23:52;5.60;;;3.80;;
11893;SDS011;6006;49.696;8.662;2022-12-07T13:26:22;5.60;;;4.43;;
11893;SDS011;6006;49.696;8.662;2022-12-07T13:29:04;5.70;;;4.03;;
11893;SDS011;6006;49.696;8.662;2022-12-07T13:31:38;4.13;;;3.40;;
11893;SDS011;6006;49.696;8.662;2022-12-07T13:36:56;7.23;;;3.27;;
11893;SDS011;6006;49.696;8.662;2022-12-07T13:39:24;3.63;;;2.90;;
11893;SDS011;6006;49.696;8.662;2022-12-07T13:41:53;3.77;;;2.60;;
11893;SDS011;6006;49.696;8.662;2022-12-07T13:44:22;2.50;;;2.30;;
11893;SDS011;6006;49.696;8.662;2022-12-07T13:46:53;3.90;;;2.17;;
11893;SDS011;6006;49.696;8.662;2022-12-07T13:49:26;5.40;;;2.63;;
11893;SDS011;6006;49.696;8.662;2022-12-07T13:51:55;7.80;;;5.50;;
11893;SDS011;6006;49.696;8.662;2022-12-07T13:54:43;3.07;;;2.57;;
11893;SDS011;6006;49.696;8.662;2022-12-07T13:57:12;2.50;;;1.97;;
11893;SDS011;6006;49.696;8.662;2022-12-07T13:59:39;3.80;;;2.47;;
11893;SDS011;6006;49.696;8.662;2022-12-07T14:02:16;2.47;;;2.27;;
11893;SDS011;6006;49.696;8.662;2022-12-07T14:04:45;2.57;;;2.30;;
11893;SDS011;6006;49.696;8.662;2022-12-07T14:07:19;2.67;;;2.27;;
11893;SDS011;6006;49.696;8.662;2022-12-07T14:09:56;6.77;;;3.60;;
11893;SDS011;6006;49.696;8.662;2022-12-07T14:12:25;4.10;;;2.80;;
11893;SDS011;6006;49.696;8.662;2022-12-07T14:14:53;5.47;;;2.93;;
11893;SDS011;6006;49.696;8.662;2022-12-07T14:17:23;5.30;;;2.70;;
11893;SDS011;6006;49.696;8.662;2022-12-07T14:19:52;2.77;;;2.40;;
11893;SDS011;6006;49.696;8.662;2022-12-07T14:22:23;2.53;;;2.20;;
11893;SDS011;6006;49.696;8.662;2022-12-07T14:27:48;2.20;;;2.00;;
11893;SDS011;6006;49.696;8.662;2022-12-07T14:30:21;3.77;;;2.23;;
11893;SDS011;6006;49.696;8.662;2022-12-07T14:32:52;3.10;;;2.07;;
11893;SDS011;6006;49.696;8.662;2022-12-07T14:35:21;4.50;;;2.80;;
11893;SDS011;6006;49.696;8.662;2022-12-07T14:37:49;3.53;;;2.57;;
11893;SDS011;6006;49.696;8.662;2022-12-07T14:40:17;3.10;;;2.60;;
11893;SDS011;6006;49.696;8.662;2022-12-07T14:42:45;2.30;;;2.10;;
11893;SDS011;6006;49.696;8.662;2022-12-07T14:45:15;2.87;;;2.57;;
11893;SDS011;6006;49.696;8.662;2022-12-07T14:47:43;6.60;;;2.90;;
11893;SDS011;6006;49.696;8.662;2022-12-07T14:50:13;4.17;;;2.57;;
11893;SDS011;6006;49.696;8.662;2022-12-07T14:52:42;5.23;;;2.60;;
11893;SDS011;6006;49.696;8.662;2022-12-07T14:55:12;4.27;;;2.80;;
11893;SDS011;6006;49.696;8.662;2022-12-07T14:57:43;4.13;;;3.00;;
11893;SDS011;6006;49.696;8.662;2022-12-07T15:00:13;3.50;;;2.40;;
11893;SDS011;6006;49.696;8.662;2022-12-07T15:02:42;3.93;;;2.70;;
11893;SDS011;6006;49.696;8.662;2022-12-07T15:05:10;3.20;;;2.50;;
11893;SDS011;6006;49.696;8.662;2022-12-07T15:07:38;2.67;;;2.47;;
11893;SDS011;6006;49.696;8.662;2022-12-07T15:10:06;3.57;;;2.43;;
11893;SDS011;6006;49.696;8.662;2022-12-07T15:12:39;3.60;;;2.77;;
11893;SDS011;6006;49.696;8.662;2022-12-07T15:15:06;4.13;;;2.43;;
11893;SDS011;6006;49.696;8.662;2022-12-07T15:17:34;2.60;;;2.40;;
11893;SDS011;6006;49.696;8.662;2022-12-07T15:20:01;6.30;;;2.70;;
11893;SDS011;6006;49.696;8.662;2022-12-07T15:22:28;2.50;;;2.30;;
11893;SDS011;6006;49.696;8.662;2022-12-07T15:24:57;3.47;;;2.97;;
11893;SDS011;6006;49.696;8.662;2022-12-07T15:27:26;3.83;;;2.30;;
11893;SDS011;6006;49.696;8.662;2022-12-07T15:29:53;2.63;;;2.40;;
11893;SDS011;6006;49.696;8.662;2022-12-07T15:32:20;2.63;;;2.43;;
11893;SDS011;6006;49.696;8.662;2022-12-07T15:34:48;2.83;;;2.53;;
11893;SDS011;6006;49.696;8.662;2022-12-07T15:37:16;3.17;;;2.67;;
11893;SDS011;6006;49.696;8.662;2022-12-07T15:39:42;3.87;;;2.70;;
11893;SDS011;6006;49.696;8.662;2022-12-07T15:42:11;4.13;;;2.40;;
11893;SDS011;6006;49.696;8.662;2022-12-07T15:44:38;2.90;;;2.60;;
11893;SDS011;6006;49.696;8.662;2022-12-07T15:47:22;2.97;;;1.97;;